sensor_id;sensor_type;location;lat;lon;timestamp;pressure;altitude;pressure_sealevel;temperature;humidity
10261;BME280;5175;42.606;23.388;2023-07-29T00:00:40;93689.84;;;18.02;75.93
10261;BME280;5175;42.606;23.388;2023-07-29T00:03:06;93682.81;;;18.09;74.14
10261;BME280;5175;42.606;23.388;2023-07-29T00:05:33;93689.41;;;18.21;70.69
10261;BME280;5175;42.606;23.388;2023-07-29T00:08:00;93691.13;;;18.25;72.46
10261;BME280;5175;42.606;23.388;2023-07-29T00:10:27;93675.25;;;18.24;72.57
10261;BME280;5175;42.606;23.388;2023-07-29T00:12:53;93686.25;;;18.19;76.11
10261;BME280;5175;42.606;23.388;2023-07-29T00:15:21;93649.25;;;17.90;74.41
10261;BME280;5175;42.606;23.388;2023-07-29T00:17:48;93694.81;;;18.21;74.23
10261;BME280;5175;42.606;23.388;2023-07-29T00:20:15;93681.13;;;17.96;75.42
10261;BME280;5175;42.606;23.388;2023-07-29T00:22:42;93693.03;;;17.95;76.45
10261;BME280;5175;42.606;23.388;2023-07-29T00:25:09;93677.91;;;18.03;74.45
10261;BME280;5175;42.606;23.388;2023-07-29T00:27:35;93682.88;;;17.92;74.98
10261;BME280;5175;42.606;23.388;2023-07-29T00:30:03;93680.81;;;17.69;77.21
10261;BME280;5175;42.606;23.388;2023-07-29T00:32:31;93677.56;;;17.37;81.95
10261;BME280;5175;42.606;23.388;2023-07-29T00:34:58;93666.56;;;17.51;79.05
10261;BME280;5175;42.606;23.388;2023-07-29T00:37:26;93668.94;;;17.61;80.71
10261;BME280;5175;42.606;23.388;2023-07-29T00:39:53;93680.38;;;17.49;80.90
10261;BME280;5175;42.606;23.388;2023-07-29T00:42:20;93686.06;;;17.57;80.28
10261;BME280;5175;42.606;23.388;2023-07-29T00:44:46;93687.03;;;17.52;81.85
10261;BME280;5175;42.606;23.388;2023-07-29T00:47:15;93672.28;;;17.49;81.84
10261;BME280;5175;42.606;23.388;2023-07-29T00:49:44;93676.22;;;17.52;80.85
10261;BME280;5175;42.606;23.388;2023-07-29T00:52:11;93669.09;;;17.01;81.61
10261;BME280;5175;42.606;23.388;2023-07-29T00:54:38;93647.47;;;16.63;82.53
10261;BME280;5175;42.606;23.388;2023-07-29T00:57:05;93666.78;;;16.57;83.23
10261;BME280;5175;42.606;23.388;2023-07-29T00:59:34;93671.03;;;16.83;81.60
10261;BME280;5175;42.606;23.388;2023-07-29T01:02:02;93670.38;;;17.04;79.99
10261;BME280;5175;42.606;23.388;2023-07-29T01:04:29;93660.88;;;16.89;82.27
10261;BME280;5175;42.606;23.388;2023-07-29T01:07:02;93667.41;;;16.54;86.43
10261;BME280;5175;42.606;23.388;2023-07-29T01:09:39;93667.22;;;16.16;88.01
10261;BME280;5175;42.606;23.388;2023-07-29T01:12:12;93670.88;;;16.37;85.73
10261;BME280;5175;42.606;23.388;2023-07-29T01:14:48;93663.09;;;16.18;86.96
10261;BME280;5175;42.606;23.388;2023-07-29T01:17:22;93639.13;;;15.74;88.36
10261;BME280;5175;42.606;23.388;2023-07-29T01:19:59;93662.75;;;15.86;88.79
10261;BME280;5175;42.606;23.388;2023-07-29T01:22:29;93660.06;;;15.94;88.20
10261;BME280;5175;42.606;23.388;2023-07-29T01:24:58;93663.09;;;16.10;87.83
10261;BME280;5175;42.606;23.388;2023-07-29T01:27:25;93666.13;;;16.17;88.34
10261;BME280;5175;42.606;23.388;2023-07-29T01:29:52;93664.38;;;16.12;88.66
10261;BME280;5175;42.606;23.388;2023-07-29T01:32:23;93669.09;;;16.15;92.07
10261;BME280;5175;42.606;23.388;2023-07-29T01:34:56;93655.19;;;16.13;92.68
10261;BME280;5175;42.606;23.388;2023-07-29T01:37:26;93660.88;;;16.20;93.24
10261;BME280;5175;42.606;23.388;2023-07-29T01:39:59;93651.38;;;16.32;89.97
10261;BME280;5175;42.606;23.388;2023-07-29T01:42:26;93659.28;;;16.28;90.86
10261;BME280;5175;42.606;23.388;2023-07-29T01:44:53;93662.81;;;16.46;87.42
10261;BME280;5175;42.606;23.388;2023-07-29T01:47:20;93662.00;;;16.45;87.76
10261;BME280;5175;42.606;23.388;2023-07-29T01:49:48;93660.09;;;16.37;88.98
10261;BME280;5175;42.606;23.388;2023-07-29T01:52:15;93658.22;;;16.38;89.44
10261;BME280;5175;42.606;23.388;2023-07-29T01:54:41;93655.69;;;16.33;90.31
10261;BME280;5175;42.606;23.388;2023-07-29T01:57:09;93665.00;;;16.44;88.35
10261;BME280;5175;42.606;23.388;2023-07-29T01:59:36;93664.34;;;16.04;89.47
10261;BME280;5175;42.606;23.388;2023-07-29T02:02:03;93670.69;;;16.16;89.58
10261;BME280;5175;42.606;23.388;2023-07-29T02:04:30;93667.38;;;16.19;88.27
10261;BME280;5175;42.606;23.388;2023-07-29T02:06:56;93656.13;;;16.26;88.55
10261;BME280;5175;42.606;23.388;2023-07-29T02:09:23;93666.44;;;16.24;88.51
10261;BME280;5175;42.606;23.388;2023-07-29T02:11:51;93669.38;;;15.88;90.77
10261;BME280;5175;42.606;23.388;2023-07-29T02:14:19;93664.19;;;15.92;90.69
10261;BME280;5175;42.606;23.388;2023-07-29T02:16:46;93671.28;;;15.88;90.54
10261;BME280;5175;42.606;23.388;2023-07-29T02:19:12;93665.75;;;15.93;90.69
10261;BME280;5175;42.606;23.388;2023-07-29T02:21:39;93663.69;;;15.81;93.95
10261;BME280;5175;42.606;23.388;2023-07-29T02:24:06;93670.34;;;15.84;96.00
10261;BME280;5175;42.606;23.388;2023-07-29T02:26:32;93674.66;;;16.02;95.48
10261;BME280;5175;42.606;23.388;2023-07-29T02:28:59;93663.03;;;15.76;93.78
10261;BME280;5175;42.606;23.388;2023-07-29T02:31:27;93676.22;;;15.94;91.58
10261;BME280;5175;42.606;23.388;2023-07-29T02:33:54;93671.28;;;15.79;91.40
10261;BME280;5175;42.606;23.388;2023-07-29T02:36:21;93679.00;;;15.33;93.63
10261;BME280;5175;42.606;23.388;2023-07-29T02:38:47;93667.44;;;15.32;94.79
10261;BME280;5175;42.606;23.388;2023-07-29T02:41:14;93667.88;;;15.48;94.27
10261;BME280;5175;42.606;23.388;2023-07-29T02:43:42;93669.00;;;15.55;93.50
10261;BME280;5175;42.606;23.388;2023-07-29T02:46:08;93667.25;;;15.59;93.76
10261;BME280;5175;42.606;23.388;2023-07-29T02:48:37;93665.50;;;15.55;96.01
10261;BME280;5175;42.606;23.388;2023-07-29T02:51:03;93656.59;;;15.46;96.45
10261;BME280;5175;42.606;23.388;2023-07-29T02:53:30;93656.97;;;15.53;95.95
10261;BME280;5175;42.606;23.388;2023-07-29T02:55:57;93657.75;;;15.53;96.14
10261;BME280;5175;42.606;23.388;2023-07-29T02:58:23;93654.56;;;15.12;98.18
10261;BME280;5175;42.606;23.388;2023-07-29T03:00:51;93663.50;;;14.99;98.52
10261;BME280;5175;42.606;23.388;2023-07-29T03:03:18;93667.53;;;15.19;96.67
10261;BME280;5175;42.606;23.388;2023-07-29T03:05:46;93668.88;;;15.30;96.73
10261;BME280;5175;42.606;23.388;2023-07-29T03:08:13;93665.06;;;15.31;97.05
10261;BME280;5175;42.606;23.388;2023-07-29T03:10:40;93665.84;;;15.23;98.13
10261;BME280;5175;42.606;23.388;2023-07-29T03:13:07;93675.41;;;15.15;98.35
10261;BME280;5175;42.606;23.388;2023-07-29T03:15:34;93674.13;;;15.13;96.73
10261;BME280;5175;42.606;23.388;2023-07-29T03:18:00;93667.28;;;14.98;97.60
10261;BME280;5175;42.606;23.388;2023-07-29T03:20:27;93680.28;;;14.82;99.05
10261;BME280;5175;42.606;23.388;2023-07-29T03:22:55;93680.41;;;14.99;97.59
10261;BME280;5175;42.606;23.388;2023-07-29T03:25:22;93676.81;;;15.13;96.96
10261;BME280;5175;42.606;23.388;2023-07-29T03:27:49;93679.34;;;15.09;97.67
10261;BME280;5175;42.606;23.388;2023-07-29T03:30:19;93679.16;;;15.05;97.79
10261;BME280;5175;42.606;23.388;2023-07-29T03:32:46;93680.50;;;15.17;97.11
10261;BME280;5175;42.606;23.388;2023-07-29T03:35:13;93678.22;;;15.32;96.80
10261;BME280;5175;42.606;23.388;2023-07-29T03:37:39;93682.97;;;15.44;97.67
10261;BME280;5175;42.606;23.388;2023-07-29T03:40:09;93688.28;;;15.57;98.06
10261;BME280;5175;42.606;23.388;2023-07-29T03:42:36;93691.31;;;15.64;98.40
10261;BME280;5175;42.606;23.388;2023-07-29T03:45:03;93690.19;;;15.57;99.10
10261;BME280;5175;42.606;23.388;2023-07-29T03:47:30;93693.22;;;15.64;98.21
10261;BME280;5175;42.606;23.388;2023-07-29T03:49:57;93673.78;;;15.36;97.88
10261;BME280;5175;42.606;23.388;2023-07-29T03:52:24;93660.19;;;15.81;97.58
10261;BME280;5175;42.606;23.388;2023-07-29T03:54:50;93682.53;;;15.98;97.60
10261;BME280;5175;42.606;23.388;2023-07-29T03:57:19;93681.03;;;15.58;96.85
10261;BME280;5175;42.606;23.388;2023-07-29T03:59:45;93685.00;;;15.69;95.98
10261;BME280;5175;42.606;23.388;2023-07-29T04:02:12;93681.97;;;15.62;96.25
10261;BME280;5175;42.606;23.388;2023-07-29T04:04:39;93684.94;;;15.52;97.24
10261;BME280;5175;42.606;23.388;2023-07-29T04:07:07;93638.59;;;15.46;95.93
10261;BME280;5175;42.606;23.388;2023-07-29T04:09:34;93677.28;;;15.76;96.38
10261;BME280;5175;42.606;23.388;2023-07-29T04:12:01;93692.00;;;15.87;97.71
10261;BME280;5175;42.606;23.388;2023-07-29T04:14:29;93687.75;;;15.95;96.16
10261;BME280;5175;42.606;23.388;2023-07-29T04:16:56;93690.03;;;16.18;95.17
10261;BME280;5175;42.606;23.388;2023-07-29T04:19:23;93699.38;;;16.21;95.96
10261;BME280;5175;42.606;23.388;2023-07-29T04:21:50;93700.16;;;16.39;96.05
10261;BME280;5175;42.606;23.388;2023-07-29T04:24:16;93701.44;;;16.50;94.37
10261;BME280;5175;42.606;23.388;2023-07-29T04:26:45;93691.03;;;16.65;93.09
10261;BME280;5175;42.606;23.388;2023-07-29T04:29:12;93684.97;;;16.77;93.69
10261;BME280;5175;42.606;23.388;2023-07-29T04:31:40;93693.06;;;16.85;91.48
10261;BME280;5175;42.606;23.388;2023-07-29T04:34:08;93682.91;;;16.82;91.61
10261;BME280;5175;42.606;23.388;2023-07-29T04:36:35;93696.88;;;16.84;92.55
10261;BME280;5175;42.606;23.388;2023-07-29T04:39:02;93686.28;;;16.71;94.09
10261;BME280;5175;42.606;23.388;2023-07-29T04:41:29;93697.06;;;16.71;94.30
10261;BME280;5175;42.606;23.388;2023-07-29T04:43:56;93691.16;;;16.86;94.64
10261;BME280;5175;42.606;23.388;2023-07-29T04:46:22;93692.06;;;17.16;92.50
10261;BME280;5175;42.606;23.388;2023-07-29T04:48:50;93692.94;;;17.37;90.41
10261;BME280;5175;42.606;23.388;2023-07-29T04:51:17;93695.59;;;17.54;88.81
10261;BME280;5175;42.606;23.388;2023-07-29T04:53:44;93700.34;;;17.66;89.90
10261;BME280;5175;42.606;23.388;2023-07-29T04:56:11;93702.94;;;17.83;88.30
10261;BME280;5175;42.606;23.388;2023-07-29T04:58:37;93700.19;;;18.00;88.61
10261;BME280;5175;42.606;23.388;2023-07-29T05:01:04;93701.91;;;18.04;87.95
10261;BME280;5175;42.606;23.388;2023-07-29T05:03:31;93697.88;;;18.10;89.02
10261;BME280;5175;42.606;23.388;2023-07-29T05:05:59;93701.91;;;18.04;91.87
10261;BME280;5175;42.606;23.388;2023-07-29T05:08:26;93706.81;;;18.32;88.02
10261;BME280;5175;42.606;23.388;2023-07-29T05:10:53;93707.50;;;18.49;87.87
10261;BME280;5175;42.606;23.388;2023-07-29T05:13:21;93706.75;;;18.49;87.16
10261;BME280;5175;42.606;23.388;2023-07-29T05:15:48;93719.47;;;18.69;85.36
10261;BME280;5175;42.606;23.388;2023-07-29T05:18:15;93722.91;;;18.90;83.43
10261;BME280;5175;42.606;23.388;2023-07-29T05:20:43;93730.34;;;19.14;82.71
10261;BME280;5175;42.606;23.388;2023-07-29T05:23:11;93724.53;;;19.24;83.04
10261;BME280;5175;42.606;23.388;2023-07-29T05:25:37;93718.59;;;19.30;81.27
10261;BME280;5175;42.606;23.388;2023-07-29T05:28:04;93720.69;;;18.92;84.04
10261;BME280;5175;42.606;23.388;2023-07-29T05:30:32;93728.06;;;19.04;83.57
10261;BME280;5175;42.606;23.388;2023-07-29T05:33:02;93732.66;;;19.03;82.81
10261;BME280;5175;42.606;23.388;2023-07-29T05:35:29;93731.34;;;19.09;82.22
10261;BME280;5175;42.606;23.388;2023-07-29T05:37:56;93733.19;;;19.38;81.81
10261;BME280;5175;42.606;23.388;2023-07-29T05:40:24;93735.03;;;19.58;80.13
10261;BME280;5175;42.606;23.388;2023-07-29T05:42:51;93731.47;;;19.90;78.10
10261;BME280;5175;42.606;23.388;2023-07-29T05:45:18;93735.88;;;20.07;77.05
10261;BME280;5175;42.606;23.388;2023-07-29T05:47:44;93744.13;;;20.23;75.62
10261;BME280;5175;42.606;23.388;2023-07-29T05:50:11;93742.03;;;20.28;74.95
10261;BME280;5175;42.606;23.388;2023-07-29T05:52:38;93746.75;;;20.43;73.78
10261;BME280;5175;42.606;23.388;2023-07-29T05:55:05;93744.22;;;20.63;73.28
10261;BME280;5175;42.606;23.388;2023-07-29T05:57:34;93744.09;;;20.71;73.26
10261;BME280;5175;42.606;23.388;2023-07-29T06:00:00;93745.88;;;20.91;73.83
10261;BME280;5175;42.606;23.388;2023-07-29T06:02:28;93742.56;;;21.10;72.31
10261;BME280;5175;42.606;23.388;2023-07-29T06:04:54;93739.94;;;21.13;72.24
10261;BME280;5175;42.606;23.388;2023-07-29T06:07:21;93736.25;;;21.34;70.72
10261;BME280;5175;42.606;23.388;2023-07-29T06:09:48;93739.22;;;21.44;68.97
10261;BME280;5175;42.606;23.388;2023-07-29T06:12:15;93743.41;;;21.54;68.79
10261;BME280;5175;42.606;23.388;2023-07-29T06:14:43;93748.13;;;21.72;67.29
10261;BME280;5175;42.606;23.388;2023-07-29T06:17:10;93755.78;;;21.82;67.13
10261;BME280;5175;42.606;23.388;2023-07-29T06:19:37;93742.69;;;22.00;66.50
10261;BME280;5175;42.606;23.388;2023-07-29T06:24:31;93740.72;;;22.32;64.34
10261;BME280;5175;42.606;23.388;2023-07-29T06:26:58;93733.88;;;22.54;64.01
10261;BME280;5175;42.606;23.388;2023-07-29T06:29:25;93734.66;;;22.70;64.42
10261;BME280;5175;42.606;23.388;2023-07-29T06:31:53;93731.91;;;22.85;63.04
10261;BME280;5175;42.606;23.388;2023-07-29T06:34:20;93732.47;;;22.94;62.75
10261;BME280;5175;42.606;23.388;2023-07-29T06:36:47;93740.00;;;23.01;62.51
10261;BME280;5175;42.606;23.388;2023-07-29T06:39:14;93728.53;;;22.92;63.55
10261;BME280;5175;42.606;23.388;2023-07-29T06:41:40;93730.47;;;23.30;60.96
10261;BME280;5175;42.606;23.388;2023-07-29T06:44:07;93716.50;;;23.50;59.76
10261;BME280;5175;42.606;23.388;2023-07-29T06:46:34;93701.88;;;23.58;58.11
10261;BME280;5175;42.606;23.388;2023-07-29T06:49:02;93725.78;;;23.88;57.50
10261;BME280;5175;42.606;23.388;2023-07-29T06:51:29;93721.53;;;23.90;56.41
10261;BME280;5175;42.606;23.388;2023-07-29T06:53:58;93715.28;;;23.90;55.50
10261;BME280;5175;42.606;23.388;2023-07-29T06:56:24;93710.97;;;23.66;57.81
10261;BME280;5175;42.606;23.388;2023-07-29T06:58:51;93717.16;;;23.86;55.36
10261;BME280;5175;42.606;23.388;2023-07-29T07:01:18;93715.53;;;24.04;54.25
10261;BME280;5175;42.606;23.388;2023-07-29T07:03:45;93715.88;;;24.21;53.53
10261;BME280;5175;42.606;23.388;2023-07-29T07:06:13;93709.03;;;24.35;52.99
10261;BME280;5175;42.606;23.388;2023-07-29T07:08:40;93677.91;;;24.36;52.95
10261;BME280;5175;42.606;23.388;2023-07-29T07:11:07;93720.25;;;24.78;52.00
10261;BME280;5175;42.606;23.388;2023-07-29T07:13:34;93720.06;;;24.91;50.87
10261;BME280;5175;42.606;23.388;2023-07-29T07:16:00;93697.69;;;24.81;51.57
10261;BME280;5175;42.606;23.388;2023-07-29T07:18:27;93715.41;;;24.95;51.93
10261;BME280;5175;42.606;23.388;2023-07-29T07:20:54;93719.16;;;25.13;51.50
10261;BME280;5175;42.606;23.388;2023-07-29T07:23:22;93719.50;;;25.08;52.52
10261;BME280;5175;42.606;23.388;2023-07-29T07:25:49;93731.38;;;25.22;49.90
10261;BME280;5175;42.606;23.388;2023-07-29T07:28:15;93718.59;;;25.30;49.74
10261;BME280;5175;42.606;23.388;2023-07-29T07:30:42;93723.72;;;25.65;49.18
10261;BME280;5175;42.606;23.388;2023-07-29T07:33:09;93680.22;;;25.52;48.78
10261;BME280;5175;42.606;23.388;2023-07-29T07:35:36;93716.75;;;25.71;49.03
10261;BME280;5175;42.606;23.388;2023-07-29T07:38:03;93724.59;;;25.76;48.80
10261;BME280;5175;42.606;23.388;2023-07-29T07:40:31;93721.00;;;25.68;49.79
10261;BME280;5175;42.606;23.388;2023-07-29T07:42:58;93718.38;;;25.75;49.10
10261;BME280;5175;42.606;23.388;2023-07-29T07:45:25;93716.66;;;26.00;48.56
10261;BME280;5175;42.606;23.388;2023-07-29T07:47:51;93721.44;;;26.10;48.58
10261;BME280;5175;42.606;23.388;2023-07-29T07:50:19;93716.47;;;26.20;47.71
10261;BME280;5175;42.606;23.388;2023-07-29T07:52:46;93716.66;;;26.00;47.93
10261;BME280;5175;42.606;23.388;2023-07-29T07:55:12;93727.44;;;26.23;47.65
10261;BME280;5175;42.606;23.388;2023-07-29T07:57:41;93722.50;;;26.43;47.38
10261;BME280;5175;42.606;23.388;2023-07-29T08:00:08;93724.97;;;26.58;47.05
10261;BME280;5175;42.606;23.388;2023-07-29T08:02:36;93726.50;;;26.08;48.52
10261;BME280;5175;42.606;23.388;2023-07-29T08:05:03;93728.50;;;26.59;47.58
10261;BME280;5175;42.606;23.388;2023-07-29T08:07:29;93725.09;;;26.76;46.28
10261;BME280;5175;42.606;23.388;2023-07-29T08:09:56;93723.91;;;26.73;45.91
10261;BME280;5175;42.606;23.388;2023-07-29T08:12:23;93726.81;;;26.95;45.56
10261;BME280;5175;42.606;23.388;2023-07-29T08:14:51;93730.31;;;26.88;45.63
10261;BME280;5175;42.606;23.388;2023-07-29T08:17:18;93724.22;;;27.23;45.51
10261;BME280;5175;42.606;23.388;2023-07-29T08:19:44;93725.00;;;27.16;44.50
10261;BME280;5175;42.606;23.388;2023-07-29T08:22:11;93718.03;;;27.37;45.34
10261;BME280;5175;42.606;23.388;2023-07-29T08:24:38;93732.25;;;27.60;43.45
10261;BME280;5175;42.606;23.388;2023-07-29T08:27:05;93738.94;;;27.76;43.60
10261;BME280;5175;42.606;23.388;2023-07-29T08:29:32;93731.16;;;27.89;42.89
10261;BME280;5175;42.606;23.388;2023-07-29T08:32:00;93716.25;;;27.79;41.95
10261;BME280;5175;42.606;23.388;2023-07-29T08:34:27;93723.31;;;27.87;42.60
10261;BME280;5175;42.606;23.388;2023-07-29T08:36:54;93685.66;;;27.74;42.35
10261;BME280;5175;42.606;23.388;2023-07-29T08:39:21;93717.91;;;28.16;41.92
10261;BME280;5175;42.606;23.388;2023-07-29T08:41:53;93730.09;;;28.22;41.14
10261;BME280;5175;42.606;23.388;2023-07-29T08:44:22;93723.34;;;27.91;41.92
10261;BME280;5175;42.606;23.388;2023-07-29T08:46:49;93721.28;;;27.63;40.67
10261;BME280;5175;42.606;23.388;2023-07-29T08:49:18;93723.66;;;27.72;40.44
10261;BME280;5175;42.606;23.388;2023-07-29T08:51:46;93730.41;;;27.95;39.76
10261;BME280;5175;42.606;23.388;2023-07-29T08:54:13;93720.66;;;28.16;39.33
10261;BME280;5175;42.606;23.388;2023-07-29T08:56:41;93721.06;;;28.32;38.71
10261;BME280;5175;42.606;23.388;2023-07-29T08:59:08;93697.53;;;28.31;37.48
10261;BME280;5175;42.606;23.388;2023-07-29T09:01:35;93719.09;;;28.25;39.18
10261;BME280;5175;42.606;23.388;2023-07-29T09:04:02;93711.66;;;28.12;38.21
10261;BME280;5175;42.606;23.388;2023-07-29T09:06:31;93704.97;;;28.20;38.17
10261;BME280;5175;42.606;23.388;2023-07-29T09:08:58;93714.38;;;28.33;37.54
10261;BME280;5175;42.606;23.388;2023-07-29T09:11:26;93711.25;;;28.52;36.62
10261;BME280;5175;42.606;23.388;2023-07-29T09:13:53;93726.19;;;28.76;37.19
10261;BME280;5175;42.606;23.388;2023-07-29T09:16:21;93708.91;;;28.86;36.58
10261;BME280;5175;42.606;23.388;2023-07-29T09:18:48;93706.16;;;28.72;35.61
10261;BME280;5175;42.606;23.388;2023-07-29T09:21:17;93707.34;;;28.78;35.44
10261;BME280;5175;42.606;23.388;2023-07-29T09:23:45;93694.78;;;28.87;35.28
10261;BME280;5175;42.606;23.388;2023-07-29T09:26:12;93707.31;;;28.99;34.13
10261;BME280;5175;42.606;23.388;2023-07-29T09:28:40;93706.47;;;29.27;33.77
10261;BME280;5175;42.606;23.388;2023-07-29T09:31:07;93697.41;;;29.37;33.16
10261;BME280;5175;42.606;23.388;2023-07-29T09:33:44;93699.81;;;29.21;33.87
10261;BME280;5175;42.606;23.388;2023-07-29T09:36:11;93701.22;;;29.64;35.07
10261;BME280;5175;42.606;23.388;2023-07-29T09:38:38;93661.72;;;29.23;33.99
10261;BME280;5175;42.606;23.388;2023-07-29T09:41:06;93703.09;;;29.85;35.24
10261;BME280;5175;42.606;23.388;2023-07-29T09:43:34;93704.72;;;29.79;34.05
10261;BME280;5175;42.606;23.388;2023-07-29T09:46:02;93691.66;;;29.93;34.35
10261;BME280;5175;42.606;23.388;2023-07-29T09:48:32;93677.16;;;29.86;34.15
10261;BME280;5175;42.606;23.388;2023-07-29T09:50:59;93696.41;;;29.86;34.78
10261;BME280;5175;42.606;23.388;2023-07-29T09:53:26;93688.91;;;29.90;34.79
10261;BME280;5175;42.606;23.388;2023-07-29T09:55:53;93685.00;;;29.87;33.91
10261;BME280;5175;42.606;23.388;2023-07-29T09:58:27;93693.44;;;30.21;33.40
10261;BME280;5175;42.606;23.388;2023-07-29T10:00:54;93684.88;;;30.08;32.98
10261;BME280;5175;42.606;23.388;2023-07-29T10:03:21;93669.97;;;30.02;32.78
10261;BME280;5175;42.606;23.388;2023-07-29T10:05:48;93679.28;;;30.19;32.90
10261;BME280;5175;42.606;23.388;2023-07-29T10:08:16;93675.88;;;29.97;33.84
10261;BME280;5175;42.606;23.388;2023-07-29T10:10:43;93650.53;;;29.61;32.30
10261;BME280;5175;42.606;23.388;2023-07-29T10:13:10;93681.41;;;29.97;34.14
10261;BME280;5175;42.606;23.388;2023-07-29T10:15:40;93680.00;;;30.30;32.68
10261;BME280;5175;42.606;23.388;2023-07-29T10:18:07;93662.78;;;30.15;34.91
10261;BME280;5175;42.606;23.388;2023-07-29T10:20:34;93669.09;;;30.64;32.66
10261;BME280;5175;42.606;23.388;2023-07-29T10:23:05;93674.22;;;30.65;31.85
10261;BME280;5175;42.606;23.388;2023-07-29T10:25:38;93655.28;;;30.71;31.61
10261;BME280;5175;42.606;23.388;2023-07-29T10:28:07;93651.56;;;30.91;32.38
10261;BME280;5175;42.606;23.388;2023-07-29T10:30:34;93654.34;;;30.84;30.77
10261;BME280;5175;42.606;23.388;2023-07-29T10:33:04;93656.53;;;31.04;30.69
10261;BME280;5175;42.606;23.388;2023-07-29T10:35:32;93645.03;;;31.12;31.99
10261;BME280;5175;42.606;23.388;2023-07-29T10:38:00;93643.03;;;31.13;31.32
10261;BME280;5175;42.606;23.388;2023-07-29T10:40:43;93640.97;;;31.20;29.91
10261;BME280;5175;42.606;23.388;2023-07-29T10:43:12;93649.06;;;31.04;31.66
10261;BME280;5175;42.606;23.388;2023-07-29T10:45:41;93641.06;;;31.43;30.00
10261;BME280;5175;42.606;23.388;2023-07-29T10:48:13;93642.81;;;31.64;32.15
10261;BME280;5175;42.606;23.388;2023-07-29T10:50:40;93645.03;;;31.76;30.45
10261;BME280;5175;42.606;23.388;2023-07-29T10:53:06;93639.31;;;32.17;30.70
10261;BME280;5175;42.606;23.388;2023-07-29T10:55:35;93638.19;;;32.14;30.14
10261;BME280;5175;42.606;23.388;2023-07-29T10:58:12;93632.28;;;32.12;30.32
10261;BME280;5175;42.606;23.388;2023-07-29T11:00:39;93632.09;;;32.23;29.89
10261;BME280;5175;42.606;23.388;2023-07-29T11:03:08;93635.78;;;32.40;30.09
10261;BME280;5175;42.606;23.388;2023-07-29T11:05:49;93626.97;;;32.48;29.07
10261;BME280;5175;42.606;23.388;2023-07-29T11:08:22;93622.59;;;32.74;31.23
10261;BME280;5175;42.606;23.388;2023-07-29T11:11:01;93620.72;;;32.44;28.66
10261;BME280;5175;42.606;23.388;2023-07-29T11:13:29;93612.56;;;32.60;28.85
10261;BME280;5175;42.606;23.388;2023-07-29T11:15:56;93624.00;;;32.82;29.95
10261;BME280;5175;42.606;23.388;2023-07-29T11:18:27;93497.06;;;32.09;28.28
10261;BME280;5175;42.606;23.388;2023-07-29T11:20:56;93621.59;;;33.07;28.31
10261;BME280;5175;42.606;23.388;2023-07-29T11:23:28;93619.84;;;32.74;28.00
10261;BME280;5175;42.606;23.388;2023-07-29T11:25:55;93615.72;;;32.82;28.72
10261;BME280;5175;42.606;23.388;2023-07-29T11:28:22;93611.91;;;32.53;27.56
10261;BME280;5175;42.606;23.388;2023-07-29T11:30:49;93615.81;;;32.55;29.83
10261;BME280;5175;42.606;23.388;2023-07-29T11:33:17;93616.94;;;32.35;27.65
10261;BME280;5175;42.606;23.388;2023-07-29T11:35:44;93627.38;;;31.97;27.72
10261;BME280;5175;42.606;23.388;2023-07-29T11:38:16;93614.31;;;32.28;32.51
10261;BME280;5175;42.606;23.388;2023-07-29T11:40:43;93607.97;;;32.50;27.84
10261;BME280;5175;42.606;23.388;2023-07-29T11:43:19;93615.75;;;32.36;26.99
10261;BME280;5175;42.606;23.388;2023-07-29T11:45:46;93613.91;;;32.52;28.31
10261;BME280;5175;42.606;23.388;2023-07-29T11:48:13;93603.75;;;32.69;30.89
10261;BME280;5175;42.606;23.388;2023-07-29T11:50:40;93602.31;;;33.04;27.56
10261;BME280;5175;42.606;23.388;2023-07-29T11:53:06;93604.25;;;32.84;27.26
10261;BME280;5175;42.606;23.388;2023-07-29T11:55:35;93610.41;;;33.14;28.65
10261;BME280;5175;42.606;23.388;2023-07-29T11:58:02;93612.41;;;32.91;27.17
10261;BME280;5175;42.606;23.388;2023-07-29T12:00:29;93599.84;;;32.86;26.89
10261;BME280;5175;42.606;23.388;2023-07-29T12:02:56;93594.06;;;32.57;27.89
10261;BME280;5175;42.606;23.388;2023-07-29T12:05:24;93596.59;;;32.48;27.71
10261;BME280;5175;42.606;23.388;2023-07-29T12:07:51;93591.63;;;32.13;28.04
10261;BME280;5175;42.606;23.388;2023-07-29T12:10:18;93588.06;;;31.63;28.46
10261;BME280;5175;42.606;23.388;2023-07-29T12:12:49;93583.03;;;31.24;28.34
10261;BME280;5175;42.606;23.388;2023-07-29T12:15:23;93579.69;;;31.09;28.76
10261;BME280;5175;42.606;23.388;2023-07-29T12:17:53;93578.78;;;31.19;29.96
10261;BME280;5175;42.606;23.388;2023-07-29T12:20:20;93583.78;;;31.85;33.31
10261;BME280;5175;42.606;23.388;2023-07-29T12:22:51;93573.94;;;32.34;30.72
10261;BME280;5175;42.606;23.388;2023-07-29T12:25:18;93578.22;;;32.38;29.22
10261;BME280;5175;42.606;23.388;2023-07-29T12:27:45;93572.38;;;32.33;30.03
10261;BME280;5175;42.606;23.388;2023-07-29T12:30:14;93574.97;;;32.43;28.16
10261;BME280;5175;42.606;23.388;2023-07-29T12:32:45;93567.66;;;32.10;29.39
10261;BME280;5175;42.606;23.388;2023-07-29T12:35:13;93555.88;;;31.79;30.31
10261;BME280;5175;42.606;23.388;2023-07-29T12:37:40;93573.63;;;31.78;28.89
10261;BME280;5175;42.606;23.388;2023-07-29T12:40:20;93569.69;;;31.79;29.90
10261;BME280;5175;42.606;23.388;2023-07-29T12:42:47;93571.25;;;32.30;28.98
10261;BME280;5175;42.606;23.388;2023-07-29T12:45:16;93570.69;;;32.62;29.28
10261;BME280;5175;42.606;23.388;2023-07-29T12:47:43;93562.00;;;32.83;27.09
10261;BME280;5175;42.606;23.388;2023-07-29T12:50:10;93567.53;;;32.83;27.50
10261;BME280;5175;42.606;23.388;2023-07-29T12:52:37;93563.78;;;33.13;27.51
10261;BME280;5175;42.606;23.388;2023-07-29T12:55:04;93568.47;;;33.55;29.03
10261;BME280;5175;42.606;23.388;2023-07-29T12:57:34;93571.44;;;33.80;28.93
10261;BME280;5175;42.606;23.388;2023-07-29T13:00:01;93573.72;;;34.01;27.81
10261;BME280;5175;42.606;23.388;2023-07-29T13:02:31;93571.69;;;33.70;27.81
10261;BME280;5175;42.606;23.388;2023-07-29T13:04:58;93566.16;;;33.50;27.73